Time;durP1;ratioP1;P1;durP2;ratioP2;P2;SDS_P1;SDS_P2;PMS_P1;PMS_P2;Temp;Humidity;BMP_temperature;BMP_pressure;BME280_temperature;BME280_humidity;BME280_pressure;Samples;Min_cycle;Max_cycle;Signal;HPM_P1;HPM_P2
2023/07/22 00:01:48;;;;;;;14.30;11.65;;;;;;;23.52;61.94;92842.16;5029807;28;20186;-70
2023/07/22 00:04:13;;;;;;;16.13;13.02;;;;;;;23.39;62.29;92838.09;5030997;28;20979;-69
2023/07/22 00:06:38;;;;;;;13.05;11.45;;;;;;;23.39;62.27;92843.44;5030038;28;20222;-70
2023/07/22 00:09:04;;;;;;;12.70;11.23;;;;;;;23.48;62.45;92848.56;5029309;28;20270;-70
2023/07/22 00:11:29;;;;;;;15.50;11.50;;;;;;;23.27;64.20;92840.91;5040599;28;20251;-69
2023/07/22 00:13:55;;;;;;;16.65;10.18;;;;;;;23.16;64.57;92836.47;5029743;28;20302;-70
2023/07/22 00:16:20;;;;;;;15.25;10.45;;;;;;;23.20;64.59;92843.41;5045646;28;20232;-70
2023/07/22 00:18:47;;;;;;;12.60;11.32;;;;;;;23.39;64.87;92851.44;5055084;28;20192;-70
2023/07/22 00:21:13;;;;;;;11.57;10.57;;;;;;;23.22;66.29;92851.81;5038151;28;20228;-69
2023/07/22 00:23:38;;;;;;;14.13;11.00;;;;;;;23.15;65.80;92835.69;5033742;28;20204;-70
2023/07/22 00:26:04;;;;;;;12.48;10.82;;;;;;;23.05;65.95;92865.53;5033281;28;20233;-70
2023/07/22 00:28:29;;;;;;;12.75;10.20;;;;;;;22.96;66.80;92867.63;5033791;28;20222;-70
2023/07/22 00:30:54;;;;;;;13.52;10.93;;;;;;;22.69;67.08;92863.25;5044214;28;20241;-70
2023/07/22 00:33:20;;;;;;;14.02;11.85;;;;;;;22.54;68.83;92861.38;5046891;28;20226;-70
2023/07/22 00:35:52;;;;;;;11.98;10.68;;;;;;;22.57;67.74;92868.66;5053541;28;20244;-70
2023/07/22 00:38:18;;;;;;;15.65;11.40;;;;;;;22.54;66.80;92855.28;5053627;28;20782;-69
2023/07/22 00:40:44;;;;;;;14.15;12.63;;;;;;;22.82;66.73;92867.31;5052353;28;20208;-70
2023/07/22 00:43:09;;;;;;;13.23;12.02;;;;;;;22.95;66.92;92868.00;5053370;28;20188;-70
2023/07/22 00:45:35;;;;;;;12.05;10.63;;;;;;;22.99;66.36;92866.19;5052868;28;20232;-70
2023/07/22 00:48:01;;;;;;;14.95;12.10;;;;;;;22.90;67.00;92847.72;5052945;28;20187;-69
2023/07/22 00:50:26;;;;;;;11.15;10.02;;;;;;;22.85;67.80;92857.88;5054547;28;20233;-71
2023/07/22 00:52:52;;;;;;;16.05;12.50;;;;;;;22.87;68.15;92853.75;5052770;28;20261;-70
2023/07/22 00:55:18;;;;;;;14.50;11.35;;;;;;;22.78;68.32;92855.84;5052427;28;20253;-70
2023/07/22 00:57:44;;;;;;;13.88;11.05;;;;;;;22.67;69.65;92870.03;5052772;28;20212;-70
2023/07/22 01:00:11;;;;;;;13.57;10.40;;;;;;;22.66;69.48;92874.59;5052814;28;20233;-70
2023/07/22 01:02:38;;;;;;;16.77;10.85;;;;;;;22.70;69.71;92874.66;5052492;28;20191;-70
2023/07/22 01:05:05;;;;;;;13.65;10.57;;;;;;;22.48;69.73;92854.75;5058228;28;20231;-70
2023/07/22 01:07:31;;;;;;;15.95;10.02;;;;;;;22.45;70.09;92865.28;5053151;28;20174;-69
2023/07/22 01:09:58;;;;;;;16.00;11.43;;;;;;;22.38;70.28;92873.91;5052014;28;20251;-70
2023/07/22 01:12:24;;;;;;;12.98;11.65;;;;;;;22.50;70.17;92865.81;5052561;28;20903;-70
2023/07/22 01:14:50;;;;;;;15.23;11.13;;;;;;;22.41;70.60;92856.47;5052142;28;20242;-69
2023/07/22 01:17:15;;;;;;;11.40;9.77;;;;;;;22.39;70.37;92853.38;5051326;28;20188;-70
2023/07/22 01:19:41;;;;;;;12.30;11.05;;;;;;;22.33;71.06;92847.56;5057753;28;20195;-70
2023/07/22 01:22:10;;;;;;;11.80;10.48;;;;;;;22.14;72.30;92836.81;5052407;28;20189;-70
2023/07/22 01:24:37;;;;;;;14.10;10.85;;;;;;;22.28;71.90;92829.19;5054266;28;20173;-70
2023/07/22 01:27:04;;;;;;;11.82;10.68;;;;;;;22.29;72.06;92844.03;5053124;28;20188;-69
2023/07/22 01:29:29;;;;;;;12.20;10.75;;;;;;;22.29;71.85;92848.59;5051831;28;20229;-70
2023/07/22 01:31:55;;;;;;;12.43;11.27;;;;;;;22.18;72.00;92841.13;5052044;28;20187;-70
2023/07/22 01:34:22;;;;;;;12.48;11.23;;;;;;;22.27;72.30;92840.94;5057196;28;20272;-70
2023/07/22 01:36:48;;;;;;;13.43;10.90;;;;;;;22.17;72.20;92836.91;5052283;28;20221;-69
2023/07/22 01:39:18;;;;;;;12.45;11.10;;;;;;;22.18;72.29;92835.00;5052217;28;20275;-70
2023/07/22 01:41:44;;;;;;;13.45;11.68;;;;;;;22.14;72.50;92828.84;5031160;28;20222;-70
2023/07/22 01:44:10;;;;;;;16.90;11.45;;;;;;;21.80;73.44;92818.88;5032434;28;20253;-70
2023/07/22 01:46:36;;;;;;;12.23;11.15;;;;;;;22.00;73.04;92815.22;5050157;28;20232;-70
2023/07/22 01:49:03;;;;;;;13.70;12.40;;;;;;;22.05;73.05;92814.97;5055291;28;20209;-69
2023/07/22 01:51:29;;;;;;;13.30;11.77;;;;;;;22.08;73.24;92803.63;5083855;28;20226;-70
2023/07/22 01:53:56;;;;;;;13.10;11.80;;;;;;;22.08;73.38;92811.59;5051843;28;20192;-70
2023/07/22 01:56:22;;;;;;;14.23;11.80;;;;;;;22.00;73.45;92801.91;5050526;28;20228;-70
2023/07/22 01:58:47;;;;;;;14.00;11.95;;;;;;;22.02;73.84;92816.41;5051865;28;20256;-70
2023/07/22 02:01:15;;;;;;;14.52;10.95;;;;;;;22.01;73.55;92822.06;5051220;28;20229;-70
2023/07/22 02:03:40;;;;;;;12.23;10.00;;;;;;;22.06;73.76;92816.50;5053409;28;20238;-70
2023/07/22 02:06:06;;;;;;;15.20;11.88;;;;;;;22.00;73.92;92820.53;5051221;28;20224;-70
2023/07/22 02:08:32;;;;;;;16.08;12.07;;;;;;;21.98;73.33;92809.44;5051935;28;20208;-70
2023/07/22 02:11:03;;;;;;;14.15;11.85;;;;;;;22.01;74.04;92814.09;5050813;28;20226;-70
2023/07/22 02:13:30;;;;;;;12.15;10.95;;;;;;;21.88;74.80;92800.09;5050501;28;20196;-70
2023/07/22 02:15:55;;;;;;;16.90;11.73;;;;;;;21.91;74.35;92811.94;5051018;28;20248;-70
2023/07/22 02:18:21;;;;;;;13.40;12.07;;;;;;;21.89;74.43;92808.84;5052728;28;20189;-70
2023/07/22 02:20:46;;;;;;;15.02;10.85;;;;;;;22.04;74.81;92810.72;5050899;28;20237;-70
2023/07/22 02:23:11;;;;;;;14.90;11.25;;;;;;;21.91;74.06;92814.63;5051238;28;20252;-70
2023/07/22 02:25:37;;;;;;;12.85;11.05;;;;;;;21.77;74.71;92812.38;5053988;28;20225;-69
2023/07/22 02:28:02;;;;;;;15.05;11.00;;;;;;;21.64;75.93;92826.03;5050901;28;20278;-69
2023/07/22 02:30:27;;;;;;;13.85;12.05;;;;;;;21.61;75.74;92824.84;5050909;28;20891;-70
2023/07/22 02:32:53;;;;;;;12.00;10.50;;;;;;;21.73;76.31;92821.31;5051403;28;20197;-70
2023/07/22 02:35:18;;;;;;;17.38;12.20;;;;;;;21.67;76.12;92812.06;5050542;28;20228;-70
2023/07/22 02:37:44;;;;;;;14.02;12.00;;;;;;;21.64;77.13;92824.16;5051336;28;20902;-70
2023/07/22 02:40:11;;;;;;;17.90;12.82;;;;;;;21.58;77.66;92822.88;5049534;28;20226;-70
2023/07/22 02:42:37;;;;;;;16.08;12.65;;;;;;;21.81;77.80;92833.72;5050384;28;20181;-70
2023/07/22 02:45:03;;;;;;;17.95;12.32;;;;;;;21.69;77.06;92823.13;5050091;28;20283;-70
2023/07/22 02:47:29;;;;;;;18.92;12.10;;;;;;;21.47;78.89;92824.47;5050840;28;20194;-70
2023/07/22 02:49:54;;;;;;;15.13;12.50;;;;;;;21.39;78.88;92819.28;5050195;28;20226;-70
2023/07/22 02:52:20;;;;;;;14.30;12.10;;;;;;;21.43;78.61;92833.47;5050887;28;20188;-70
2023/07/22 02:55:11;;;;;;;14.27;12.40;;;;;;;21.50;77.67;92833.63;5050168;28;20232;-70
2023/07/22 02:57:38;;;;;;;12.52;11.07;;;;;;;21.44;77.56;92835.78;5082560;28;20207;-70
2023/07/22 03:00:07;;;;;;;12.82;11.68;;;;;;;21.43;77.44;92836.88;5050338;28;20369;-70
2023/07/22 03:02:37;;;;;;;13.48;12.15;;;;;;;21.45;78.36;92828.56;5050729;28;20189;-70
2023/07/22 03:05:09;;;;;;;14.20;11.18;;;;;;;21.51;78.76;92830.63;5049981;28;20232;-70
2023/07/22 03:07:36;;;;;;;13.50;12.00;;;;;;;21.51;78.93;92830.63;5049604;28;20188;-70
2023/07/22 03:10:02;;;;;;;17.75;12.40;;;;;;;21.49;79.00;92842.72;5049928;28;20270;-69
2023/07/22 03:12:27;;;;;;;14.93;11.68;;;;;;;21.41;79.04;92841.00;5050482;28;20206;-70
2023/07/22 03:14:53;;;;;;;14.90;13.02;;;;;;;21.35;79.09;92834.38;5049938;28;20227;-70
2023/07/22 03:17:19;;;;;;;14.93;12.38;;;;;;;21.37;79.35;92834.81;5049314;28;20215;-70
2023/07/22 03:19:44;;;;;;;14.48;13.02;;;;;;;21.34;79.20;92841.56;5049965;28;20278;-70
2023/07/22 03:22:13;;;;;;;13.23;11.95;;;;;;;21.48;79.31;92841.94;5050235;28;20192;-70
2023/07/22 03:24:38;;;;;;;16.20;12.20;;;;;;;21.36;79.06;92826.06;5049670;28;20187;-69
2023/07/22 03:27:04;;;;;;;16.35;12.25;;;;;;;21.53;78.91;92832.97;5049856;28;20216;-70
2023/07/22 03:29:29;;;;;;;15.30;12.57;;;;;;;21.49;80.03;92829.44;5049807;28;20206;-70
2023/07/22 03:31:57;;;;;;;18.75;13.88;;;;;;;21.50;79.77;92838.94;5049790;28;20249;-70
2023/07/22 03:34:22;;;;;;;14.48;12.80;;;;;;;21.60;79.01;92835.81;5050459;28;20182;-71
2023/07/22 03:36:48;;;;;;;16.10;12.02;;;;;;;21.65;78.55;92840.88;5049644;28;20254;-70
2023/07/22 03:39:14;;;;;;;15.10;12.43;;;;;;;21.91;77.76;92846.53;5050517;28;20374;-70
2023/07/22 03:41:39;;;;;;;12.85;11.32;;;;;;;21.82;78.26;92853.88;5051897;28;20309;-70
2023/07/22 03:44:05;;;;;;;25.77;15.05;;;;;;;21.85;79.73;92863.84;5049775;28;20195;-70
2023/07/22 03:46:31;;;;;;;15.57;12.60;;;;;;;21.92;77.78;92866.66;5031709;28;20236;-70
2023/07/22 03:48:56;;;;;;;17.00;12.48;;;;;;;21.98;78.07;92878.59;5030097;28;20255;-70
2023/07/22 03:51:21;;;;;;;14.57;12.90;;;;;;;22.09;78.37;92874.31;5045333;28;20211;-70
2023/07/22 03:53:47;;;;;;;14.88;12.00;;;;;;;22.13;79.40;92867.22;5048866;28;20239;-70
2023/07/22 03:56:12;;;;;;;18.20;11.93;;;;;;;22.41;77.41;92870.56;5034892;28;20210;-70
2023/07/22 03:58:37;;;;;;;15.20;11.73;;;;;;;22.46;77.86;92880.91;5029868;28;20694;-70
2023/07/22 04:01:03;;;;;;;17.95;12.75;;;;;;;22.68;76.78;92882.97;5043052;28;21124;-70
2023/07/22 04:03:28;;;;;;;13.80;12.50;;;;;;;22.70;76.43;92885.31;5049838;28;20280;-70
2023/07/22 04:05:55;;;;;;;16.67;13.50;;;;;;;22.85;77.10;92892.50;5049048;28;20282;-70
2023/07/22 04:08:21;;;;;;;15.82;12.27;;;;;;;22.94;76.04;92885.84;5050192;28;20209;-70
2023/07/22 04:10:57;;;;;;;11.88;10.88;;;;;;;22.98;75.58;92889.38;5048637;28;20229;-70
2023/07/22 04:13:25;;;;;;;13.68;12.15;;;;;;;23.30;73.42;92888.19;5049867;28;20180;-70
2023/07/22 04:15:51;;;;;;;14.65;12.13;;;;;;;23.36;74.75;92889.44;5049021;28;20296;-69
2023/07/22 04:18:17;;;;;;;16.52;12.27;;;;;;;23.51;72.01;92893.94;5049438;28;21016;-70
2023/07/22 04:20:43;;;;;;;12.95;11.68;;;;;;;23.68;72.51;92904.19;5048809;28;20223;-70
2023/07/22 04:23:09;;;;;;;12.85;11.50;;;;;;;23.76;70.33;92894.41;5049161;28;20253;-70
2023/07/22 04:25:45;;;;;;;17.40;12.30;;;;;;;23.69;71.04;92899.59;5048994;28;20285;-70
2023/07/22 04:28:10;;;;;;;13.05;11.93;;;;;;;23.63;71.00;92903.69;5049364;28;20204;-70
2023/07/22 04:30:37;;;;;;;12.43;11.23;;;;;;;23.35;68.55;92901.22;5049334;28;20283;-70
2023/07/22 04:33:03;;;;;;;13.52;12.23;;;;;;;23.99;68.93;92907.81;5049266;28;20184;-70
2023/07/22 04:35:32;;;;;;;15.23;12.30;;;;;;;23.64;66.66;92902.56;5049012;28;20234;-70
2023/07/22 04:37:57;;;;;;;14.63;11.70;;;;;;;24.10;66.12;92911.44;5049442;28;20220;-69
2023/07/22 04:40:24;;;;;;;12.40;11.20;;;;;;;24.42;64.87;92910.88;5081034;28;20211;-69
2023/07/22 04:42:50;;;;;;;14.30;12.27;;;;;;;24.60;63.39;92911.16;5049074;28;20195;-70
2023/07/22 04:45:18;;;;;;;14.43;11.77;;;;;;;24.39;66.24;92903.56;5048919;28;20217;-70
2023/07/22 04:47:46;;;;;;;14.90;12.38;;;;;;;24.34;65.00;92908.47;5048994;28;20192;-70
2023/07/22 04:50:12;;;;;;;16.33;12.18;;;;;;;24.58;65.42;92908.84;5052238;28;20236;-70
2023/07/22 04:52:37;;;;;;;13.18;11.77;;;;;;;24.71;64.81;92909.47;5048954;28;20215;-70
2023/07/22 04:55:09;;;;;;;13.38;11.52;;;;;;;24.91;63.91;92903.69;5054544;28;20258;-70
2023/07/22 04:57:42;;;;;;;15.65;12.48;;;;;;;24.67;65.17;92911.31;5050920;28;20703;-70
2023/07/22 05:00:19;;;;;;;19.67;13.25;;;;;;;24.48;66.62;92914.81;5048786;28;20231;-70
2023/07/22 05:02:49;;;;;;;14.55;11.23;;;;;;;24.99;64.34;92910.69;5049549;28;20202;-70
2023/07/22 05:05:15;;;;;;;11.60;10.43;;;;;;;25.39;62.41;92914.69;5055377;28;20234;-70
2023/07/22 05:07:41;;;;;;;13.63;11.90;;;;;;;25.45;62.68;92919.34;5032822;28;20229;-70
2023/07/22 05:10:11;;;;;;;14.27;11.02;;;;;;;26.35;58.61;92923.47;5038884;28;20256;-70
2023/07/22 05:12:38;;;;;;;15.77;11.30;;;;;;;25.89;58.72;92930.97;5052612;28;20181;-70
2023/07/22 05:15:04;;;;;;;13.40;11.02;;;;;;;26.16;58.61;92929.78;5051911;28;20229;-70
2023/07/22 05:17:31;;;;;;;12.15;10.73;;;;;;;25.81;60.80;92937.38;5052513;28;20412;-69
2023/07/22 05:19:56;;;;;;;14.90;11.15;;;;;;;25.55;61.35;92939.34;5055360;28;20253;-70
2023/07/22 05:22:22;;;;;;;14.68;11.55;;;;;;;24.85;64.26;92945.19;5032723;28;20188;-70
2023/07/22 05:24:47;;;;;;;18.67;12.20;;;;;;;25.30;63.09;92944.31;5032142;28;20981;-70
2023/07/22 05:27:12;;;;;;;12.90;11.40;;;;;;;25.72;61.97;92936.09;5031614;28;20197;-70
2023/07/22 05:29:38;;;;;;;17.75;12.07;;;;;;;25.15;62.17;92937.25;5033642;28;20211;-70
2023/07/22 05:32:04;;;;;;;14.30;11.10;;;;;;;25.73;60.93;92941.09;5038134;28;20182;-70
2023/07/22 05:34:29;;;;;;;14.43;12.15;;;;;;;26.20;60.36;92949.31;5045898;28;20186;-70
2023/07/22 05:36:54;;;;;;;12.63;11.20;;;;;;;26.51;58.73;92943.50;5051778;28;20182;-70
2023/07/22 05:39:20;;;;;;;17.35;11.57;;;;;;;26.42;59.17;92939.59;5052425;28;20262;-70
2023/07/22 05:41:45;;;;;;;12.75;11.55;;;;;;;26.32;59.46;92941.03;5038691;28;20304;-70
2023/07/22 05:44:11;;;;;;;13.02;11.63;;;;;;;26.23;60.05;92945.13;5050833;28;20192;-70
2023/07/22 05:46:37;;;;;;;18.40;13.07;;;;;;;25.80;62.18;92946.53;5051443;28;20237;-70
2023/07/22 05:49:02;;;;;;;14.18;12.63;;;;;;;26.12;60.66;92952.28;5058041;28;20209;-70
2023/07/22 05:51:27;;;;;;;18.23;11.55;;;;;;;26.49;60.03;92951.13;5051489;28;20225;-70
2023/07/22 05:53:53;;;;;;;12.55;10.95;;;;;;;28.26;53.72;92967.28;5063710;28;20174;-70
2023/07/22 05:56:18;;;;;;;12.88;9.90;;;;;;;32.02;43.70;92974.78;5051265;28;20248;-71
2023/07/22 05:58:44;;;;;;;12.65;11.30;;;;;;;34.68;37.05;92971.69;5051747;28;20182;-70
2023/07/22 06:01:10;;;;;;;18.05;11.27;;;;;;;36.07;33.55;92973.44;5051253;28;20305;-70
2023/07/22 06:03:35;;;;;;;11.93;10.70;;;;;;;37.99;30.93;92991.38;5056687;28;20182;-70
2023/07/22 06:06:01;;;;;;;13.43;9.88;;;;;;;38.86;29.13;92994.91;5051115;28;20294;-71
2023/07/22 06:08:26;;;;;;;11.70;10.50;;;;;;;39.88;27.12;93004.59;5051652;28;20273;-71
2023/07/22 06:10:52;;;;;;;12.18;10.35;;;;;;;36.76;31.93;92991.75;5051114;28;20218;-71
2023/07/22 06:13:17;;;;;;;18.88;10.70;;;;;;;35.93;32.47;92990.91;5051609;28;20178;-70
2023/07/22 06:15:43;;;;;;;15.82;11.10;;;;;;;39.22;28.06;93008.75;5050579;28;20253;-71
2023/07/22 06:18:08;;;;;;;17.08;10.00;;;;;;;39.71;27.51;93011.50;5052713;28;20219;-70
2023/07/22 06:20:35;;;;;;;14.38;10.68;;;;;;;37.73;30.53;93014.44;5049810;28;20214;-71
2023/07/22 06:23:01;;;;;;;14.63;10.68;;;;;;;38.68;28.50;93032.25;5051129;28;20210;-71
2023/07/22 06:25:27;;;;;;;10.88;9.80;;;;;;;39.24;27.64;93035.66;5054140;28;20304;-71
2023/07/22 06:27:54;;;;;;;14.57;10.73;;;;;;;39.26;27.53;93033.19;5051217;28;20193;-71
2023/07/22 06:30:19;;;;;;;13.13;10.68;;;;;;;39.94;26.97;93030.16;5050711;28;20233;-70
2023/07/22 06:32:44;;;;;;;18.40;10.93;;;;;;;40.31;26.62;93045.41;5053980;28;20185;-71
2023/07/22 06:35:10;;;;;;;15.43;9.70;;;;;;;38.72;28.67;93032.88;5050846;28;21247;-71
2023/07/22 06:37:35;;;;;;;10.73;9.50;;;;;;;40.38;26.45;93045.09;5051151;28;20174;-71
2023/07/22 06:40:02;;;;;;;13.30;9.70;;;;;;;40.63;25.76;93050.28;5045059;28;20226;-71
2023/07/22 06:42:27;;;;;;;15.38;10.38;;;;;;;37.61;30.14;93038.97;5031108;28;20183;-71
2023/07/22 06:44:53;;;;;;;15.18;10.57;;;;;;;40.17;26.82;93048.72;5034497;28;20256;-71
2023/07/22 06:47:18;;;;;;;17.00;10.93;;;;;;;37.89;30.27;93035.34;5052301;28;20183;-71
2023/07/22 06:49:43;;;;;;;16.38;10.98;;;;;;;34.34;35.96;93025.47;5050762;28;20238;-71
2023/07/22 06:52:09;;;;;;;13.15;11.68;;;;;;;32.25;40.30;93012.75;5049843;28;20182;-70
2023/07/22 06:54:35;;;;;;;17.70;11.55;;;;;;;31.24;43.71;92998.25;5050081;28;20205;-70
2023/07/22 06:57:00;;;;;;;19.40;12.55;;;;;;;30.91;43.92;93010.44;5050885;28;20197;-71
2023/07/22 06:59:28;;;;;;;19.50;11.82;;;;;;;29.21;49.04;93008.59;5049076;28;20262;-70
2023/07/22 07:01:54;;;;;;;16.30;13.60;;;;;;;28.92;51.34;93006.25;5050249;28;20216;-70
2023/07/22 07:04:20;;;;;;;15.30;12.05;;;;;;;28.95;51.02;92989.34;5050462;28;20222;-71
2023/07/22 07:06:46;;;;;;;15.70;12.73;;;;;;;28.63;53.01;92999.25;5030360;28;20307;-69
2023/07/22 07:09:11;;;;;;;16.75;13.18;;;;;;;28.91;53.06;92985.88;5030606;28;20255;-70
2023/07/22 07:11:37;;;;;;;15.70;12.60;;;;;;;29.01;51.53;92988.59;5048811;28;20226;-70
2023/07/22 07:14:03;;;;;;;15.65;12.90;;;;;;;28.66;53.69;92999.28;5050199;28;20206;-70
2023/07/22 07:16:31;;;;;;;17.92;13.43;;;;;;;28.69;52.64;92995.81;5049821;28;20956;-70
2023/07/22 07:18:58;;;;;;;17.08;13.85;;;;;;;29.00;51.57;93002.38;5050009;28;20184;-70
2023/07/22 07:21:24;;;;;;;14.40;12.93;;;;;;;28.38;53.23;92991.13;5050313;28;20229;-70
2023/07/22 07:23:51;;;;;;;16.60;13.20;;;;;;;28.16;54.39;92992.97;5049673;28;20262;-70
2023/07/22 07:26:16;;;;;;;26.05;13.75;;;;;;;28.41;54.12;92984.97;5052593;28;20250;-71
2023/07/22 07:28:42;;;;;;;21.98;13.35;;;;;;;28.40;55.11;92991.50;5049646;28;20208;-71
2023/07/22 07:31:07;;;;;;;17.55;12.57;;;;;;;29.27;52.14;92974.00;5048845;28;20255;-70
2023/07/22 07:33:33;;;;;;;20.17;13.20;;;;;;;29.08;51.97;92975.16;5050063;28;20182;-71
2023/07/22 07:35:59;;;;;;;19.50;13.30;;;;;;;28.72;53.01;92972.81;5049611;28;20222;-69
2023/07/22 07:38:25;;;;;;;19.08;14.30;;;;;;;28.83;52.98;92973.56;5050094;28;20207;-71
2023/07/22 07:40:58;;;;;;;18.70;14.75;;;;;;;29.19;53.83;92973.25;5049729;28;20224;-70
2023/07/22 07:43:23;;;;;;;19.70;14.23;;;;;;;29.31;52.31;92959.38;5082310;28;20178;-70
2023/07/22 07:45:48;;;;;;;21.70;13.25;;;;;;;29.38;52.31;92962.09;5069684;28;20237;-70
2023/07/22 07:48:14;;;;;;;22.40;14.65;;;;;;;28.87;51.59;92968.97;5040116;28;20202;-70
2023/07/22 07:50:39;;;;;;;19.27;14.50;;;;;;;28.58;52.96;92975.47;5039185;28;20225;-71
2023/07/22 07:53:05;;;;;;;23.45;15.25;;;;;;;28.29;53.70;92982.66;5049488;28;20186;-70
2023/07/22 07:55:30;;;;;;;28.85;16.40;;;;;;;28.47;52.53;92975.44;5049459;28;20257;-70
2023/07/22 07:57:55;;;;;;;26.58;15.95;;;;;;;28.69;54.45;92982.38;5049555;28;20174;-70
2023/07/22 08:00:21;;;;;;;21.83;14.70;;;;;;;28.99;51.81;92973.97;5049233;28;20260;-71
2023/07/22 08:02:47;;;;;;;20.40;15.00;;;;;;;28.91;50.93;92975.88;5049144;28;20257;-70
2023/07/22 08:05:12;;;;;;;18.95;14.48;;;;;;;27.80;54.83;92921.44;5049178;28;20228;-70
2023/07/22 08:07:38;;;;;;;20.67;13.85;;;;;;;28.46;53.15;92968.50;5048900;28;20256;-70
2023/07/22 08:10:07;;;;;;;24.38;14.32;;;;;;;28.86;52.21;92951.31;5049562;28;20229;-70
2023/07/22 08:12:33;;;;;;;17.05;13.65;;;;;;;29.23;52.46;92974.00;5049631;28;20253;-70
2023/07/22 08:14:58;;;;;;;18.00;13.63;;;;;;;29.03;53.70;92964.75;5049198;28;20230;-70
2023/07/22 08:17:23;;;;;;;17.02;14.02;;;;;;;29.40;50.55;92965.13;5040097;28;20174;-70
2023/07/22 08:19:49;;;;;;;15.27;12.95;;;;;;;29.41;50.87;92964.00;5048934;28;21045;-70
2023/07/22 08:22:14;;;;;;;15.80;14.18;;;;;;;29.17;54.16;92956.69;5049098;28;20206;-70
2023/07/22 08:24:40;;;;;;;16.65;13.75;;;;;;;29.31;50.78;92959.38;5051633;28;20193;-70
2023/07/22 08:27:05;;;;;;;18.38;13.98;;;;;;;29.63;50.80;92964.72;5049866;28;20200;-71
2023/07/22 08:29:31;;;;;;;18.67;13.45;;;;;;;29.87;50.86;92957.78;5048962;28;20224;-70
2023/07/22 08:31:56;;;;;;;15.02;13.50;;;;;;;30.02;49.52;92965.41;5054885;28;20196;-70
2023/07/22 08:34:22;;;;;;;18.65;14.40;;;;;;;30.10;50.00;92958.06;5048102;28;20198;-70
2023/07/22 08:36:47;;;;;;;19.52;13.32;;;;;;;30.13;50.23;92960.75;5048717;28;20243;-70
2023/07/22 08:39:13;;;;;;;17.17;13.30;;;;;;;29.83;52.40;92967.75;5052260;28;20205;-70
2023/07/22 08:41:40;;;;;;;18.75;14.23;;;;;;;30.41;49.01;92955.25;5052977;28;20214;-70
2023/07/22 08:44:10;;;;;;;22.98;13.75;;;;;;;30.37;48.09;92951.78;5052961;28;20197;-70
2023/07/22 08:46:39;;;;;;;14.35;13.02;;;;;;;29.90;50.58;92941.56;5051588;28;20221;-71
2023/07/22 08:49:06;;;;;;;20.77;15.38;;;;;;;29.54;51.72;92940.88;5052570;28;20214;-70
2023/07/22 08:51:32;;;;;;;18.15;13.18;;;;;;;29.88;52.11;92937.75;5052554;28;20221;-70
2023/07/22 08:53:59;;;;;;;18.65;13.95;;;;;;;30.20;51.08;92928.41;5052954;28;20194;-70
2023/07/22 08:56:25;;;;;;;16.75;13.45;;;;;;;30.49;48.84;92924.38;5052621;28;20225;-70
2023/07/22 08:58:52;;;;;;;14.88;12.88;;;;;;;30.21;48.52;92907.63;5052961;28;20189;-70
2023/07/22 09:01:18;;;;;;;16.77;13.23;;;;;;;30.66;48.61;92917.34;5056779;28;20252;-70
2023/07/22 09:03:44;;;;;;;18.75;14.02;;;;;;;30.55;47.57;92922.84;5052760;28;20228;-70
2023/07/22 09:06:10;;;;;;;17.13;13.50;;;;;;;30.22;47.69;92918.00;5094379;28;20260;-69
2023/07/22 09:08:35;;;;;;;15.55;13.60;;;;;;;30.25;49.41;92906.44;5052642;28;20240;-71
2023/07/22 09:11:01;;;;;;;17.67;13.80;;;;;;;30.21;50.17;92913.00;5052892;28;20230;-70
2023/07/22 09:13:28;;;;;;;16.42;12.82;;;;;;;30.18;49.47;92919.91;5051577;28;20185;-71
2023/07/22 09:15:56;;;;;;;19.17;14.73;;;;;;;30.21;49.49;92918.41;5052100;28;20232;-70
2023/07/22 09:18:22;;;;;;;18.90;12.93;;;;;;;30.36;50.45;92922.53;5052639;28;20187;-71
2023/07/22 09:20:48;;;;;;;15.10;13.20;;;;;;;30.40;47.04;92926.00;5050069;28;20234;-70
2023/07/22 09:23:13;;;;;;;20.00;13.27;;;;;;;30.44;47.82;92924.03;5032356;28;20269;-71
2023/07/22 09:25:40;;;;;;;15.13;13.18;;;;;;;30.47;47.29;92920.56;5032179;28;20238;-70
2023/07/22 09:28:06;;;;;;;14.85;13.07;;;;;;;30.37;46.88;92899.84;5032193;28;20187;-70
2023/07/22 09:30:38;;;;;;;20.48;12.68;;;;;;;30.59;49.00;92918.16;5041897;28;20214;-70
2023/07/22 09:33:05;;;;;;;18.67;14.43;;;;;;;30.73;48.52;92920.00;5052200;28;20189;-70
2023/07/22 09:35:43;;;;;;;15.77;12.70;;;;;;;30.44;48.49;92922.13;5059249;28;20228;-71
2023/07/22 09:38:09;;;;;;;15.05;12.98;;;;;;;31.01;47.61;92922.50;5052153;28;20218;-70
2023/07/22 09:40:34;;;;;;;16.95;13.15;;;;;;;30.75;49.02;92921.19;5052263;28;20239;-71
2023/07/22 09:43:03;;;;;;;17.15;14.00;;;;;;;30.56;49.14;92910.09;5051905;28;20174;-71
2023/07/22 09:45:30;;;;;;;16.40;13.77;;;;;;;30.95;46.83;92911.38;5051625;28;20256;-71
2023/07/22 09:47:56;;;;;;;18.90;13.77;;;;;;;31.01;46.44;92907.09;5084448;28;20248;-70
2023/07/22 09:50:23;;;;;;;17.92;14.07;;;;;;;30.28;48.06;92910.28;5054541;28;20226;-71
2023/07/22 09:52:50;;;;;;;22.70;13.32;;;;;;;30.85;47.91;92914.19;5051839;28;20196;-71
2023/07/22 09:55:18;;;;;;;20.88;13.95;;;;;;;30.68;45.75;92901.56;5051274;28;20290;-70
2023/07/22 09:57:45;;;;;;;14.00;12.00;;;;;;;30.05;47.92;92899.19;5051670;28;20208;-70
2023/07/22 10:00:14;;;;;;;19.90;13.43;;;;;;;30.32;46.28;92902.94;5058635;28;20313;-70
2023/07/22 10:02:42;;;;;;;15.80;13.48;;;;;;;30.52;46.71;92885.09;5051696;28;20680;-71
2023/07/22 10:05:13;;;;;;;14.35;12.88;;;;;;;31.32;46.87;92896.44;5045032;28;20250;-71
2023/07/22 10:07:42;;;;;;;16.20;12.55;;;;;;;31.60;44.83;92899.59;5051505;28;20238;-70
2023/07/22 10:10:09;;;;;;;17.70;12.73;;;;;;;31.50;44.98;92897.81;5050770;28;20225;-71
2023/07/22 10:12:35;;;;;;;16.75;12.65;;;;;;;31.71;44.35;92904.88;5052057;28;20190;-71
2023/07/22 10:15:02;;;;;;;19.23;13.00;;;;;;;31.27;46.24;92905.69;5050893;28;20252;-71
2023/07/22 10:17:29;;;;;;;15.05;12.50;;;;;;;31.57;43.85;92894.22;5050761;28;20189;-71
2023/07/22 10:19:55;;;;;;;17.92;13.65;;;;;;;31.59;44.38;92900.78;5050292;28;20257;-71
2023/07/22 10:22:21;;;;;;;14.25;12.20;;;;;;;31.76;42.85;92902.53;5057436;28;20182;-70
2023/07/22 10:24:47;;;;;;;20.58;13.07;;;;;;;31.52;43.97;92890.03;5059893;28;20232;-70
2023/07/22 10:27:14;;;;;;;19.77;12.40;;;;;;;31.62;45.88;92899.97;5051638;28;20200;-70
2023/07/22 10:29:41;;;;;;;21.73;13.05;;;;;;;31.99;44.70;92891.06;5050748;28;20256;-71
2023/07/22 10:32:07;;;;;;;26.52;13.00;;;;;;;31.27;44.97;92849.78;5051378;28;20193;-71
2023/07/22 10:34:32;;;;;;;22.13;12.30;;;;;;;31.73;42.73;92889.03;5054050;28;20186;-71
2023/07/22 10:36:58;;;;;;;19.40;12.65;;;;;;;31.93;41.75;92895.41;5050395;28;20186;-71
2023/07/22 10:39:28;;;;;;;20.95;12.00;;;;;;;31.90;40.22;92880.00;5050859;28;20190;-71
2023/07/22 10:42:01;;;;;;;19.45;12.45;;;;;;;32.01;41.94;92881.41;5051543;28;20281;-70
2023/07/22 10:44:27;;;;;;;26.20;12.82;;;;;;;32.36;40.49;92880.94;5049929;28;20194;-71
2023/07/22 10:46:59;;;;;;;18.95;11.35;;;;;;;32.45;40.62;92889.31;5050970;28;20261;-70
2023/07/22 10:49:41;;;;;;;18.10;10.45;;;;;;;32.51;37.60;92871.47;5051933;28;20214;-71
2023/07/22 10:52:07;;;;;;;17.80;10.68;;;;;;;32.77;36.18;92878.03;5050750;28;20180;-71
2023/07/22 10:54:35;;;;;;;20.83;10.82;;;;;;;32.57;37.32;92886.06;5045245;28;20222;-70
2023/07/22 10:57:23;;;;;;;24.90;10.77;;;;;;;32.84;38.38;92869.81;5031002;28;20194;-71
2023/07/22 10:59:51;;;;;;;18.73;9.63;;;;;;;32.91;34.08;92860.81;5041660;28;20229;-71
2023/07/22 11:02:27;;;;;;;24.17;10.63;;;;;;;33.16;36.82;92877.41;5049640;28;20232;-70
2023/07/22 11:04:52;;;;;;;20.80;9.35;;;;;;;32.90;32.96;92865.50;5045923;28;20240;-70
2023/07/22 11:07:31;;;;;;;33.90;9.75;;;;;;;33.10;33.18;92873.66;5030463;28;20195;-70
2023/07/22 11:09:56;;;;;;;25.70;9.85;;;;;;;33.19;32.48;92863.06;5034371;28;20234;-71
2023/07/22 11:12:24;;;;;;;23.63;9.93;;;;;;;33.62;32.00;92855.72;5050753;28;20752;-70
2023/07/22 11:14:52;;;;;;;21.27;9.77;;;;;;;33.58;33.20;92865.84;5050360;28;20229;-70